sensor_id;sensor_type;location;lat;lon;timestamp;P1;durP1;ratioP1;P2;durP2;ratioP2
46000;SDS011;72226;48.272;11.180;2024-01-30T00:02:24;11.13;;;8.88;;
46000;SDS011;72226;48.272;11.180;2024-01-30T00:04:50;11.27;;;9.20;;
46000;SDS011;72226;48.272;11.180;2024-01-30T00:07:15;12.10;;;10.02;;
46000;SDS011;72226;48.272;11.180;2024-01-30T00:09:41;15.70;;;9.73;;
46000;SDS011;72226;48.272;11.180;2024-01-30T00:12:06;10.60;;;9.50;;
46000;SDS011;72226;48.272;11.180;2024-01-30T00:14:31;11.73;;;9.93;;
46000;SDS011;72226;48.272;11.180;2024-01-30T00:16:56;13.70;;;9.13;;
46000;SDS011;72226;48.272;11.180;2024-01-30T00:19:22;14.40;;;9.90;;
46000;SDS011;72226;48.272;11.180;2024-01-30T00:21:47;11.30;;;8.75;;
46000;SDS011;72226;48.272;11.180;2024-01-30T00:24:12;13.98;;;9.98;;
46000;SDS011;72226;48.272;11.180;2024-01-30T00:26:37;11.65;;;7.95;;
46000;SDS011;72226;48.272;11.180;2024-01-30T00:29:03;14.75;;;8.98;;
46000;SDS011;72226;48.272;11.180;2024-01-30T00:31:28;12.52;;;9.45;;
46000;SDS011;72226;48.272;11.180;2024-01-30T00:33:53;15.63;;;8.85;;
46000;SDS011;72226;48.272;11.180;2024-01-30T00:36:18;11.25;;;9.82;;
46000;SDS011;72226;48.272;11.180;2024-01-30T00:38:44;11.98;;;9.43;;
46000;SDS011;72226;48.272;11.180;2024-01-30T00:41:09;12.70;;;8.90;;
46000;SDS011;72226;48.272;11.180;2024-01-30T00:43:35;9.93;;;8.57;;
46000;SDS011;72226;48.272;11.180;2024-01-30T00:46:00;13.55;;;9.23;;
46000;SDS011;72226;48.272;11.180;2024-01-30T00:48:25;9.93;;;8.85;;
46000;SDS011;72226;48.272;11.180;2024-01-30T00:50:51;10.82;;;9.73;;
46000;SDS011;72226;48.272;11.180;2024-01-30T00:53:16;14.82;;;8.95;;
46000;SDS011;72226;48.272;11.180;2024-01-30T00:55:41;12.05;;;9.40;;
46000;SDS011;72226;48.272;11.180;2024-01-30T00:58:06;10.85;;;8.57;;
46000;SDS011;72226;48.272;11.180;2024-01-30T01:00:32;12.02;;;9.45;;
46000;SDS011;72226;48.272;11.180;2024-01-30T01:03:00;13.82;;;9.25;;
46000;SDS011;72226;48.272;11.180;2024-01-30T01:05:25;10.75;;;8.63;;
46000;SDS011;72226;48.272;11.180;2024-01-30T01:07:51;10.98;;;9.02;;
46000;SDS011;72226;48.272;11.180;2024-01-30T01:10:16;12.38;;;9.65;;
46000;SDS011;72226;48.272;11.180;2024-01-30T01:12:42;10.98;;;9.60;;
46000;SDS011;72226;48.272;11.180;2024-01-30T01:15:07;12.60;;;9.05;;
46000;SDS011;72226;48.272;11.180;2024-01-30T01:17:35;10.77;;;9.27;;
46000;SDS011;72226;48.272;11.180;2024-01-30T01:20:00;11.57;;;9.45;;
46000;SDS011;72226;48.272;11.180;2024-01-30T01:22:25;11.25;;;8.82;;
46000;SDS011;72226;48.272;11.180;2024-01-30T01:24:50;14.02;;;10.50;;
46000;SDS011;72226;48.272;11.180;2024-01-30T01:27:16;12.10;;;8.82;;
46000;SDS011;72226;48.272;11.180;2024-01-30T01:29:41;12.55;;;9.85;;
46000;SDS011;72226;48.272;11.180;2024-01-30T01:32:06;13.35;;;8.55;;
46000;SDS011;72226;48.272;11.180;2024-01-30T01:34:31;13.82;;;10.38;;
46000;SDS011;72226;48.272;11.180;2024-01-30T01:36:57;10.15;;;9.13;;
46000;SDS011;72226;48.272;11.180;2024-01-30T01:39:22;11.60;;;9.45;;
46000;SDS011;72226;48.272;11.180;2024-01-30T01:41:50;10.02;;;8.02;;
46000;SDS011;72226;48.272;11.180;2024-01-30T01:44:16;12.52;;;9.38;;
46000;SDS011;72226;48.272;11.180;2024-01-30T01:46:42;11.77;;;8.85;;
46000;SDS011;72226;48.272;11.180;2024-01-30T01:49:07;14.55;;;8.85;;
46000;SDS011;72226;48.272;11.180;2024-01-30T01:51:34;13.13;;;9.65;;
46000;SDS011;72226;48.272;11.180;2024-01-30T01:54:01;19.27;;;10.57;;
46000;SDS011;72226;48.272;11.180;2024-01-30T01:56:27;12.20;;;9.00;;
46000;SDS011;72226;48.272;11.180;2024-01-30T01:58:54;12.95;;;9.40;;
46000;SDS011;72226;48.272;11.180;2024-01-30T02:01:19;11.43;;;9.63;;
46000;SDS011;72226;48.272;11.180;2024-01-30T02:03:45;10.38;;;8.88;;
46000;SDS011;72226;48.272;11.180;2024-01-30T02:06:10;19.05;;;10.80;;
46000;SDS011;72226;48.272;11.180;2024-01-30T02:08:37;13.50;;;9.00;;
46000;SDS011;72226;48.272;11.180;2024-01-30T02:11:02;11.68;;;8.02;;
46000;SDS011;72226;48.272;11.180;2024-01-30T02:13:27;10.43;;;7.82;;
46000;SDS011;72226;48.272;11.180;2024-01-30T02:15:53;13.88;;;9.23;;
46000;SDS011;72226;48.272;11.180;2024-01-30T02:18:19;10.60;;;8.40;;
46000;SDS011;72226;48.272;11.180;2024-01-30T02:20:44;8.98;;;8.07;;
46000;SDS011;72226;48.272;11.180;2024-01-30T02:23:09;12.55;;;9.05;;
46000;SDS011;72226;48.272;11.180;2024-01-30T02:25:39;11.88;;;8.13;;
46000;SDS011;72226;48.272;11.180;2024-01-30T02:28:09;11.10;;;8.45;;
46000;SDS011;72226;48.272;11.180;2024-01-30T02:30:35;14.32;;;9.23;;
46000;SDS011;72226;48.272;11.180;2024-01-30T02:33:00;12.07;;;8.02;;
46000;SDS011;72226;48.272;11.180;2024-01-30T02:35:25;11.00;;;8.48;;
46000;SDS011;72226;48.272;11.180;2024-01-30T02:37:50;10.55;;;7.63;;
46000;SDS011;72226;48.272;11.180;2024-01-30T02:40:15;10.52;;;8.07;;
46000;SDS011;72226;48.272;11.180;2024-01-30T02:42:41;12.40;;;8.45;;
46000;SDS011;72226;48.272;11.180;2024-01-30T02:45:07;10.38;;;8.60;;
46000;SDS011;72226;48.272;11.180;2024-01-30T02:47:32;10.88;;;8.40;;
46000;SDS011;72226;48.272;11.180;2024-01-30T02:49:57;17.60;;;9.50;;
46000;SDS011;72226;48.272;11.180;2024-01-30T02:52:22;8.90;;;7.75;;
46000;SDS011;72226;48.272;11.180;2024-01-30T02:54:48;14.70;;;8.48;;
46000;SDS011;72226;48.272;11.180;2024-01-30T02:57:13;10.88;;;8.63;;
46000;SDS011;72226;48.272;11.180;2024-01-30T02:59:38;9.07;;;7.68;;
46000;SDS011;72226;48.272;11.180;2024-01-30T03:02:03;11.80;;;8.55;;
46000;SDS011;72226;48.272;11.180;2024-01-30T03:04:29;12.70;;;9.30;;
46000;SDS011;72226;48.272;11.180;2024-01-30T03:06:55;12.98;;;8.32;;
46000;SDS011;72226;48.272;11.180;2024-01-30T03:09:20;12.38;;;8.80;;
46000;SDS011;72226;48.272;11.180;2024-01-30T03:11:45;15.35;;;8.20;;
46000;SDS011;72226;48.272;11.180;2024-01-30T03:14:10;9.27;;;8.32;;
46000;SDS011;72226;48.272;11.180;2024-01-30T03:16:36;12.05;;;7.78;;
46000;SDS011;72226;48.272;11.180;2024-01-30T03:19:01;8.82;;;7.78;;
46000;SDS011;72226;48.272;11.180;2024-01-30T03:21:28;11.50;;;8.10;;
46000;SDS011;72226;48.272;11.180;2024-01-30T03:23:53;8.80;;;7.60;;
46000;SDS011;72226;48.272;11.180;2024-01-30T03:26:19;9.40;;;8.13;;
46000;SDS011;72226;48.272;11.180;2024-01-30T03:28:44;9.13;;;7.35;;
46000;SDS011;72226;48.272;11.180;2024-01-30T03:31:09;9.48;;;8.02;;
46000;SDS011;72226;48.272;11.180;2024-01-30T03:33:36;10.95;;;7.97;;
46000;SDS011;72226;48.272;11.180;2024-01-30T03:36:04;13.75;;;8.55;;
46000;SDS011;72226;48.272;11.180;2024-01-30T03:38:30;9.73;;;7.63;;
46000;SDS011;72226;48.272;11.180;2024-01-30T03:40:57;9.40;;;7.85;;
46000;SDS011;72226;48.272;11.180;2024-01-30T03:43:22;10.10;;;7.55;;
46000;SDS011;72226;48.272;11.180;2024-01-30T03:45:48;10.07;;;7.53;;
46000;SDS011;72226;48.272;11.180;2024-01-30T03:48:13;9.40;;;8.27;;
46000;SDS011;72226;48.272;11.180;2024-01-30T03:50:38;8.82;;;7.80;;
46000;SDS011;72226;48.272;11.180;2024-01-30T03:53:03;10.68;;;8.25;;
46000;SDS011;72226;48.272;11.180;2024-01-30T03:55:29;8.95;;;7.85;;
46000;SDS011;72226;48.272;11.180;2024-01-30T03:57:54;9.90;;;7.53;;
46000;SDS011;72226;48.272;11.180;2024-01-30T04:00:19;9.10;;;8.20;;
46000;SDS011;72226;48.272;11.180;2024-01-30T04:02:44;9.32;;;6.75;;
46000;SDS011;72226;48.272;11.180;2024-01-30T04:05:10;12.30;;;6.88;;
46000;SDS011;72226;48.272;11.180;2024-01-30T04:07:35;12.60;;;7.50;;
46000;SDS011;72226;48.272;11.180;2024-01-30T04:10:00;12.20;;;6.85;;
46000;SDS011;72226;48.272;11.180;2024-01-30T04:12:26;8.48;;;6.50;;
46000;SDS011;72226;48.272;11.180;2024-01-30T04:14:51;8.23;;;7.43;;
46000;SDS011;72226;48.272;11.180;2024-01-30T04:17:16;12.88;;;7.95;;
46000;SDS011;72226;48.272;11.180;2024-01-30T04:19:41;11.93;;;7.80;;
46000;SDS011;72226;48.272;11.180;2024-01-30T04:22:07;8.07;;;7.00;;
46000;SDS011;72226;48.272;11.180;2024-01-30T04:24:32;10.88;;;6.93;;
46000;SDS011;72226;48.272;11.180;2024-01-30T04:26:57;14.00;;;7.78;;
46000;SDS011;72226;48.272;11.180;2024-01-30T04:29:22;8.27;;;6.85;;
46000;SDS011;72226;48.272;11.180;2024-01-30T04:31:48;12.52;;;7.35;;
46000;SDS011;72226;48.272;11.180;2024-01-30T04:34:13;12.32;;;7.90;;
46000;SDS011;72226;48.272;11.180;2024-01-30T04:36:38;10.55;;;6.57;;
46000;SDS011;72226;48.272;11.180;2024-01-30T04:39:04;14.48;;;9.43;;
46000;SDS011;72226;48.272;11.180;2024-01-30T04:41:29;8.70;;;7.05;;
46000;SDS011;72226;48.272;11.180;2024-01-30T04:43:56;10.73;;;8.43;;
46000;SDS011;72226;48.272;11.180;2024-01-30T04:46:21;9.43;;;6.18;;
46000;SDS011;72226;48.272;11.180;2024-01-30T04:48:47;11.63;;;7.22;;
46000;SDS011;72226;48.272;11.180;2024-01-30T04:51:12;12.20;;;7.53;;
46000;SDS011;72226;48.272;11.180;2024-01-30T04:53:37;11.48;;;7.20;;
46000;SDS011;72226;48.272;11.180;2024-01-30T04:56:04;9.43;;;7.85;;
46000;SDS011;72226;48.272;11.180;2024-01-30T04:58:30;15.45;;;7.43;;
46000;SDS011;72226;48.272;11.180;2024-01-30T05:00:55;8.93;;;7.15;;
46000;SDS011;72226;48.272;11.180;2024-01-30T05:03:20;7.70;;;6.70;;
46000;SDS011;72226;48.272;11.180;2024-01-30T05:05:47;11.15;;;8.02;;
46000;SDS011;72226;48.272;11.180;2024-01-30T05:08:12;8.77;;;6.15;;
46000;SDS011;72226;48.272;11.180;2024-01-30T05:10:38;11.77;;;8.43;;
46000;SDS011;72226;48.272;11.180;2024-01-30T05:13:03;10.18;;;8.70;;
46000;SDS011;72226;48.272;11.180;2024-01-30T05:15:28;10.82;;;8.55;;
46000;SDS011;72226;48.272;11.180;2024-01-30T05:17:53;11.32;;;8.15;;
46000;SDS011;72226;48.272;11.180;2024-01-30T05:20:19;11.50;;;7.50;;
46000;SDS011;72226;48.272;11.180;2024-01-30T05:22:45;8.82;;;7.30;;
46000;SDS011;72226;48.272;11.180;2024-01-30T05:25:10;9.93;;;7.05;;
46000;SDS011;72226;48.272;11.180;2024-01-30T05:27:36;10.20;;;7.85;;
46000;SDS011;72226;48.272;11.180;2024-01-30T05:30:01;9.40;;;8.02;;
46000;SDS011;72226;48.272;11.180;2024-01-30T05:32:26;7.30;;;6.60;;
46000;SDS011;72226;48.272;11.180;2024-01-30T05:34:52;7.35;;;6.05;;
46000;SDS011;72226;48.272;11.180;2024-01-30T05:37:17;11.70;;;6.97;;
46000;SDS011;72226;48.272;11.180;2024-01-30T05:39:42;14.23;;;7.60;;
46000;SDS011;72226;48.272;11.180;2024-01-30T05:42:08;9.38;;;6.95;;
46000;SDS011;72226;48.272;11.180;2024-01-30T05:44:33;9.25;;;6.82;;
46000;SDS011;72226;48.272;11.180;2024-01-30T05:46:58;9.77;;;7.82;;
46000;SDS011;72226;48.272;11.180;2024-01-30T05:49:23;9.73;;;7.43;;
46000;SDS011;72226;48.272;11.180;2024-01-30T05:51:49;10.10;;;7.95;;
46000;SDS011;72226;48.272;11.180;2024-01-30T05:54:14;15.45;;;7.72;;
46000;SDS011;72226;48.272;11.180;2024-01-30T05:56:39;12.15;;;8.00;;
46000;SDS011;72226;48.272;11.180;2024-01-30T05:59:04;10.73;;;7.28;;
46000;SDS011;72226;48.272;11.180;2024-01-30T06:01:30;10.15;;;6.80;;
46000;SDS011;72226;48.272;11.180;2024-01-30T06:03:55;11.10;;;7.95;;
46000;SDS011;72226;48.272;11.180;2024-01-30T06:06:20;10.25;;;7.75;;
46000;SDS011;72226;48.272;11.180;2024-01-30T06:08:45;10.65;;;7.82;;
46000;SDS011;72226;48.272;11.180;2024-01-30T06:11:11;9.73;;;7.38;;
46000;SDS011;72226;48.272;11.180;2024-01-30T06:13:37;10.48;;;7.15;;
46000;SDS011;72226;48.272;11.180;2024-01-30T06:16:02;9.13;;;6.57;;
46000;SDS011;72226;48.272;11.180;2024-01-30T06:18:27;8.80;;;7.20;;
46000;SDS011;72226;48.272;11.180;2024-01-30T06:20:54;7.85;;;7.05;;
46000;SDS011;72226;48.272;11.180;2024-01-30T06:23:19;8.70;;;6.65;;
46000;SDS011;72226;48.272;11.180;2024-01-30T06:25:44;14.15;;;7.38;;
46000;SDS011;72226;48.272;11.180;2024-01-30T06:28:10;11.95;;;7.05;;
46000;SDS011;72226;48.272;11.180;2024-01-30T06:30:35;6.70;;;5.95;;
46000;SDS011;72226;48.272;11.180;2024-01-30T06:33:00;8.95;;;6.50;;
46000;SDS011;72226;48.272;11.180;2024-01-30T06:35:25;12.07;;;7.05;;
46000;SDS011;72226;48.272;11.180;2024-01-30T06:37:51;8.35;;;6.28;;
46000;SDS011;72226;48.272;11.180;2024-01-30T06:40:16;10.20;;;7.97;;
46000;SDS011;72226;48.272;11.180;2024-01-30T06:42:41;8.88;;;7.47;;
46000;SDS011;72226;48.272;11.180;2024-01-30T06:45:06;9.48;;;6.88;;
46000;SDS011;72226;48.272;11.180;2024-01-30T06:47:33;9.00;;;7.68;;
46000;SDS011;72226;48.272;11.180;2024-01-30T06:49:58;11.00;;;6.78;;
46000;SDS011;72226;48.272;11.180;2024-01-30T06:52:24;8.15;;;6.10;;
46000;SDS011;72226;48.272;11.180;2024-01-30T06:54:49;8.98;;;7.13;;
46000;SDS011;72226;48.272;11.180;2024-01-30T06:57:14;8.43;;;6.53;;
46000;SDS011;72226;48.272;11.180;2024-01-30T06:59:39;11.80;;;7.32;;
46000;SDS011;72226;48.272;11.180;2024-01-30T07:02:12;8.90;;;6.55;;
46000;SDS011;72226;48.272;11.180;2024-01-30T07:04:37;8.98;;;7.32;;
46000;SDS011;72226;48.272;11.180;2024-01-30T07:07:03;10.68;;;7.30;;
46000;SDS011;72226;48.272;11.180;2024-01-30T07:09:30;14.60;;;7.95;;
46000;SDS011;72226;48.272;11.180;2024-01-30T07:11:55;12.90;;;7.63;;
46000;SDS011;72226;48.272;11.180;2024-01-30T07:14:23;13.25;;;7.78;;
46000;SDS011;72226;48.272;11.180;2024-01-30T07:16:48;10.18;;;6.90;;
46000;SDS011;72226;48.272;11.180;2024-01-30T07:19:14;9.20;;;6.07;;
46000;SDS011;72226;48.272;11.180;2024-01-30T07:21:39;8.88;;;6.95;;
46000;SDS011;72226;48.272;11.180;2024-01-30T07:24:05;8.63;;;6.95;;
46000;SDS011;72226;48.272;11.180;2024-01-30T07:26:30;10.02;;;7.70;;
46000;SDS011;72226;48.272;11.180;2024-01-30T07:28:56;9.25;;;6.60;;
46000;SDS011;72226;48.272;11.180;2024-01-30T07:31:21;7.32;;;6.45;;
46000;SDS011;72226;48.272;11.180;2024-01-30T07:33:48;11.30;;;7.93;;
46000;SDS011;72226;48.272;11.180;2024-01-30T07:36:13;12.07;;;6.97;;
46000;SDS011;72226;48.272;11.180;2024-01-30T07:38:38;13.60;;;8.38;;
46000;SDS011;72226;48.272;11.180;2024-01-30T07:41:04;13.20;;;7.05;;
46000;SDS011;72226;48.272;11.180;2024-01-30T07:43:29;16.52;;;7.72;;
46000;SDS011;72226;48.272;11.180;2024-01-30T07:45:54;10.00;;;6.78;;
46000;SDS011;72226;48.272;11.180;2024-01-30T07:48:19;13.48;;;7.10;;
46000;SDS011;72226;48.272;11.180;2024-01-30T07:50:44;10.38;;;6.97;;
46000;SDS011;72226;48.272;11.180;2024-01-30T07:53:10;9.10;;;7.40;;
46000;SDS011;72226;48.272;11.180;2024-01-30T07:55:35;11.18;;;6.18;;
46000;SDS011;72226;48.272;11.180;2024-01-30T07:58:00;8.57;;;6.93;;
46000;SDS011;72226;48.272;11.180;2024-01-30T08:00:26;8.93;;;7.15;;
46000;SDS011;72226;48.272;11.180;2024-01-30T08:02:51;11.07;;;6.82;;
46000;SDS011;72226;48.272;11.180;2024-01-30T08:05:19;8.60;;;7.05;;
46000;SDS011;72226;48.272;11.180;2024-01-30T08:07:44;12.40;;;6.05;;
46000;SDS011;72226;48.272;11.180;2024-01-30T08:10:11;9.45;;;7.15;;
46000;SDS011;72226;48.272;11.180;2024-01-30T08:12:36;10.65;;;6.95;;
46000;SDS011;72226;48.272;11.180;2024-01-30T08:15:02;7.00;;;6.03;;
46000;SDS011;72226;48.272;11.180;2024-01-30T08:17:28;7.55;;;6.78;;
46000;SDS011;72226;48.272;11.180;2024-01-30T08:19:53;8.00;;;7.13;;
46000;SDS011;72226;48.272;11.180;2024-01-30T08:22:18;10.52;;;6.05;;
46000;SDS011;72226;48.272;11.180;2024-01-30T08:24:43;10.68;;;8.07;;
46000;SDS011;72226;48.272;11.180;2024-01-30T08:27:09;10.18;;;6.80;;
46000;SDS011;72226;48.272;11.180;2024-01-30T08:29:35;12.15;;;7.75;;
46000;SDS011;72226;48.272;11.180;2024-01-30T08:32:00;10.52;;;7.53;;
46000;SDS011;72226;48.272;11.180;2024-01-30T08:34:25;11.73;;;6.72;;
46000;SDS011;72226;48.272;11.180;2024-01-30T08:36:50;11.50;;;6.72;;
46000;SDS011;72226;48.272;11.180;2024-01-30T08:39:16;9.95;;;8.13;;
46000;SDS011;72226;48.272;11.180;2024-01-30T08:41:41;8.45;;;7.03;;
46000;SDS011;72226;48.272;11.180;2024-01-30T08:44:06;9.70;;;7.57;;
46000;SDS011;72226;48.272;11.180;2024-01-30T08:46:32;12.18;;;6.90;;
46000;SDS011;72226;48.272;11.180;2024-01-30T08:48:57;10.25;;;6.63;;
46000;SDS011;72226;48.272;11.180;2024-01-30T08:51:22;7.15;;;5.38;;
46000;SDS011;72226;48.272;11.180;2024-01-30T08:53:48;7.72;;;6.80;;
46000;SDS011;72226;48.272;11.180;2024-01-30T08:56:13;7.00;;;5.65;;
46000;SDS011;72226;48.272;11.180;2024-01-30T08:58:38;7.75;;;6.22;;
46000;SDS011;72226;48.272;11.180;2024-01-30T09:01:04;6.93;;;6.13;;
46000;SDS011;72226;48.272;11.180;2024-01-30T09:03:30;9.45;;;6.53;;
46000;SDS011;72226;48.272;11.180;2024-01-30T09:05:55;10.20;;;7.15;;
46000;SDS011;72226;48.272;11.180;2024-01-30T09:08:21;9.63;;;6.28;;
46000;SDS011;72226;48.272;11.180;2024-01-30T09:10:46;6.97;;;5.55;;
46000;SDS011;72226;48.272;11.180;2024-01-30T09:13:11;8.55;;;5.90;;
46000;SDS011;72226;48.272;11.180;2024-01-30T09:15:36;8.75;;;5.88;;
46000;SDS011;72226;48.272;11.180;2024-01-30T09:18:02;5.97;;;4.35;;
46000;SDS011;72226;48.272;11.180;2024-01-30T09:20:27;9.75;;;4.85;;
46000;SDS011;72226;48.272;11.180;2024-01-30T09:22:52;9.68;;;5.90;;
46000;SDS011;72226;48.272;11.180;2024-01-30T09:25:18;8.25;;;5.20;;
46000;SDS011;72226;48.272;11.180;2024-01-30T09:27:43;8.52;;;5.28;;
46000;SDS011;72226;48.272;11.180;2024-01-30T09:30:09;11.80;;;6.80;;
46000;SDS011;72226;48.272;11.180;2024-01-30T09:32:34;9.50;;;6.82;;
46000;SDS011;72226;48.272;11.180;2024-01-30T09:34:59;10.48;;;6.10;;
46000;SDS011;72226;48.272;11.180;2024-01-30T09:37:25;8.70;;;6.00;;
46000;SDS011;72226;48.272;11.180;2024-01-30T09:39:50;7.97;;;5.72;;
46000;SDS011;72226;48.272;11.180;2024-01-30T09:44:50;5.88;;;4.47;;
46000;SDS011;72226;48.272;11.180;2024-01-30T09:47:15;5.45;;;3.67;;
46000;SDS011;72226;48.272;11.180;2024-01-30T09:49:41;5.75;;;3.70;;
46000;SDS011;72226;48.272;11.180;2024-01-30T09:52:07;9.98;;;4.80;;
46000;SDS011;72226;48.272;11.180;2024-01-30T09:54:32;6.47;;;4.07;;
46000;SDS011;72226;48.272;11.180;2024-01-30T09:56:59;5.50;;;2.65;;
46000;SDS011;72226;48.272;11.180;2024-01-30T09:59:24;5.55;;;2.75;;
46000;SDS011;72226;48.272;11.180;2024-01-30T10:01:52;3.38;;;2.80;;
46000;SDS011;72226;48.272;11.180;2024-01-30T10:04:18;4.47;;;2.08;;
46000;SDS011;72226;48.272;11.180;2024-01-30T10:06:43;2.97;;;2.35;;
46000;SDS011;72226;48.272;11.180;2024-01-30T10:09:08;4.82;;;3.63;;
46000;SDS011;72226;48.272;11.180;2024-01-30T10:11:38;3.90;;;3.50;;
46000;SDS011;72226;48.272;11.180;2024-01-30T10:14:03;2.60;;;1.88;;
46000;SDS011;72226;48.272;11.180;2024-01-30T10:16:28;3.72;;;2.55;;
46000;SDS011;72226;48.272;11.180;2024-01-30T10:18:54;2.38;;;1.98;;
46000;SDS011;72226;48.272;11.180;2024-01-30T10:21:19;3.10;;;1.83;;
46000;SDS011;72226;48.272;11.180;2024-01-30T10:23:44;3.00;;;2.47;;
46000;SDS011;72226;48.272;11.180;2024-01-30T10:26:10;4.85;;;2.45;;
46000;SDS011;72226;48.272;11.180;2024-01-30T10:28:35;4.30;;;2.28;;
46000;SDS011;72226;48.272;11.180;2024-01-30T10:31:00;4.63;;;2.60;;
46000;SDS011;72226;48.272;11.180;2024-01-30T10:33:29;3.15;;;2.58;;
46000;SDS011;72226;48.272;11.180;2024-01-30T10:36:00;4.28;;;2.58;;
46000;SDS011;72226;48.272;11.180;2024-01-30T10:38:28;4.75;;;3.15;;
46000;SDS011;72226;48.272;11.180;2024-01-30T10:40:55;1.67;;;1.52;;
46000;SDS011;72226;48.272;11.180;2024-01-30T10:43:21;4.57;;;2.13;;
46000;SDS011;72226;48.272;11.180;2024-01-30T10:45:47;2.78;;;2.00;;
46000;SDS011;72226;48.272;11.180;2024-01-30T10:48:14;4.95;;;2.22;;
46000;SDS011;72226;48.272;11.180;2024-01-30T10:50:41;2.40;;;1.58;;
46000;SDS011;72226;48.272;11.180;2024-01-30T10:53:07;2.83;;;1.85;;
46000;SDS011;72226;48.272;11.180;2024-01-30T10:55:33;2.63;;;1.52;;
46000;SDS011;72226;48.272;11.180;2024-01-30T10:57:59;5.13;;;2.22;;
46000;SDS011;72226;48.272;11.180;2024-01-30T11:00:25;2.92;;;2.60;;
46000;SDS011;72226;48.272;11.180;2024-01-30T11:02:51;3.00;;;1.90;;
46000;SDS011;72226;48.272;11.180;2024-01-30T11:05:23;6.60;;;2.47;;
46000;SDS011;72226;48.272;11.180;2024-01-30T11:07:49;1.45;;;1.20;;
46000;SDS011;72226;48.272;11.180;2024-01-30T11:10:15;2.58;;;1.50;;
46000;SDS011;72226;48.272;11.180;2024-01-30T11:12:40;2.00;;;1.10;;
46000;SDS011;72226;48.272;11.180;2024-01-30T11:15:12;3.58;;;1.73;;
46000;SDS011;72226;48.272;11.180;2024-01-30T11:20:09;4.82;;;2.13;;
46000;SDS011;72226;48.272;11.180;2024-01-30T11:22:34;4.03;;;1.80;;
46000;SDS011;72226;48.272;11.180;2024-01-30T11:25:01;4.72;;;2.10;;
46000;SDS011;72226;48.272;11.180;2024-01-30T11:27:28;2.75;;;2.05;;
46000;SDS011;72226;48.272;11.180;2024-01-30T11:29:53;3.00;;;2.50;;
46000;SDS011;72226;48.272;11.180;2024-01-30T11:32:22;2.90;;;2.00;;
46000;SDS011;72226;48.272;11.180;2024-01-30T11:34:47;3.47;;;2.10;;
46000;SDS011;72226;48.272;11.180;2024-01-30T11:37:14;3.15;;;1.75;;
46000;SDS011;72226;48.272;11.180;2024-01-30T11:39:40;3.00;;;2.20;;
46000;SDS011;72226;48.272;11.180;2024-01-30T11:42:07;2.65;;;2.00;;
46000;SDS011;72226;48.272;11.180;2024-01-30T11:44:33;3.90;;;2.05;;
46000;SDS011;72226;48.272;11.180;2024-01-30T11:46:59;3.55;;;2.33;;
46000;SDS011;72226;48.272;11.180;2024-01-30T11:49:24;3.50;;;1.83;;
46000;SDS011;72226;48.272;11.180;2024-01-30T11:51:49;3.63;;;2.28;;
46000;SDS011;72226;48.272;11.180;2024-01-30T11:54:15;2.45;;;1.73;;
46000;SDS011;72226;48.272;11.180;2024-01-30T11:56:41;2.40;;;2.20;;
46000;SDS011;72226;48.272;11.180;2024-01-30T11:59:06;3.58;;;2.38;;
46000;SDS011;72226;48.272;11.180;2024-01-30T12:01:32;3.15;;;2.00;;
46000;SDS011;72226;48.272;11.180;2024-01-30T12:03:59;5.25;;;2.42;;
46000;SDS011;72226;48.272;11.180;2024-01-30T12:06:24;3.53;;;2.45;;
46000;SDS011;72226;48.272;11.180;2024-01-30T12:08:59;6.30;;;2.80;;
46000;SDS011;72226;48.272;11.180;2024-01-30T12:11:25;4.28;;;2.70;;
46000;SDS011;72226;48.272;11.180;2024-01-30T12:13:51;5.55;;;2.83;;
46000;SDS011;72226;48.272;11.180;2024-01-30T12:16:16;3.17;;;1.85;;
46000;SDS011;72226;48.272;11.180;2024-01-30T12:18:42;2.80;;;1.95;;
46000;SDS011;72226;48.272;11.180;2024-01-30T12:21:07;3.15;;;1.60;;
46000;SDS011;72226;48.272;11.180;2024-01-30T12:23:34;5.10;;;2.65;;
46000;SDS011;72226;48.272;11.180;2024-01-30T12:26:00;6.22;;;2.28;;
46000;SDS011;72226;48.272;11.180;2024-01-30T12:28:26;2.55;;;2.15;;
46000;SDS011;72226;48.272;11.180;2024-01-30T12:30:55;8.77;;;2.95;;
46000;SDS011;72226;48.272;11.180;2024-01-30T12:33:20;2.63;;;2.05;;
46000;SDS011;72226;48.272;11.180;2024-01-30T12:35:46;7.72;;;2.97;;
46000;SDS011;72226;48.272;11.180;2024-01-30T12:38:13;6.57;;;2.83;;
46000;SDS011;72226;48.272;11.180;2024-01-30T12:40:38;4.55;;;2.38;;
46000;SDS011;72226;48.272;11.180;2024-01-30T12:43:04;4.95;;;2.65;;
46000;SDS011;72226;48.272;11.180;2024-01-30T12:45:29;3.08;;;2.10;;
46000;SDS011;72226;48.272;11.180;2024-01-30T12:47:55;5.13;;;2.50;;
46000;SDS011;72226;48.272;11.180;2024-01-30T12:50:20;3.03;;;2.58;;
46000;SDS011;72226;48.272;11.180;2024-01-30T12:52:45;3.70;;;1.65;;
46000;SDS011;72226;48.272;11.180;2024-01-30T12:55:11;3.95;;;2.05;;
46000;SDS011;72226;48.272;11.180;2024-01-30T12:57:36;4.22;;;1.80;;
46000;SDS011;72226;48.272;11.180;2024-01-30T13:00:01;3.97;;;2.40;;
46000;SDS011;72226;48.272;11.180;2024-01-30T13:02:27;5.88;;;2.28;;
46000;SDS011;72226;48.272;11.180;2024-01-30T13:04:59;3.50;;;1.63;;
46000;SDS011;72226;48.272;11.180;2024-01-30T13:07:25;4.07;;;2.35;;
46000;SDS011;72226;48.272;11.180;2024-01-30T13:09:50;3.67;;;1.95;;
46000;SDS011;72226;48.272;11.180;2024-01-30T13:12:15;4.90;;;2.63;;
46000;SDS011;72226;48.272;11.180;2024-01-30T13:14:40;3.22;;;1.70;;
46000;SDS011;72226;48.272;11.180;2024-01-30T13:17:06;5.18;;;2.05;;
46000;SDS011;72226;48.272;11.180;2024-01-30T13:19:31;3.35;;;2.00;;
46000;SDS011;72226;48.272;11.180;2024-01-30T13:21:56;3.38;;;2.40;;
46000;SDS011;72226;48.272;11.180;2024-01-30T13:24:21;5.40;;;1.80;;
46000;SDS011;72226;48.272;11.180;2024-01-30T13:26:47;5.45;;;2.60;;
46000;SDS011;72226;48.272;11.180;2024-01-30T13:29:12;5.43;;;2.70;;
46000;SDS011;72226;48.272;11.180;2024-01-30T13:31:37;4.15;;;1.75;;
46000;SDS011;72226;48.272;11.180;2024-01-30T13:34:04;3.75;;;3.13;;
46000;SDS011;72226;48.272;11.180;2024-01-30T13:36:31;2.97;;;2.53;;
46000;SDS011;72226;48.272;11.180;2024-01-30T13:38:56;3.75;;;2.55;;
46000;SDS011;72226;48.272;11.180;2024-01-30T13:41:21;4.97;;;2.85;;
46000;SDS011;72226;48.272;11.180;2024-01-30T13:43:47;3.78;;;2.75;;
46000;SDS011;72226;48.272;11.180;2024-01-30T13:46:13;2.88;;;2.10;;
46000;SDS011;72226;48.272;11.180;2024-01-30T13:48:39;5.47;;;2.47;;
46000;SDS011;72226;48.272;11.180;2024-01-30T13:51:05;3.80;;;2.08;;
46000;SDS011;72226;48.272;11.180;2024-01-30T13:53:30;2.50;;;1.70;;
46000;SDS011;72226;48.272;11.180;2024-01-30T13:55:55;2.95;;;2.58;;
46000;SDS011;72226;48.272;11.180;2024-01-30T13:58:21;4.97;;;2.08;;
46000;SDS011;72226;48.272;11.180;2024-01-30T14:00:46;6.40;;;2.22;;
46000;SDS011;72226;48.272;11.180;2024-01-30T14:03:11;10.02;;;2.50;;
46000;SDS011;72226;48.272;11.180;2024-01-30T14:05:36;4.30;;;2.83;;
46000;SDS011;72226;48.272;11.180;2024-01-30T14:08:02;4.25;;;1.88;;
46000;SDS011;72226;48.272;11.180;2024-01-30T14:10:27;3.40;;;2.20;;
46000;SDS011;72226;48.272;11.180;2024-01-30T14:12:52;4.70;;;2.03;;
46000;SDS011;72226;48.272;11.180;2024-01-30T14:15:18;3.88;;;2.55;;
46000;SDS011;72226;48.272;11.180;2024-01-30T14:17:43;7.32;;;2.47;;
46000;SDS011;72226;48.272;11.180;2024-01-30T14:20:08;9.85;;;3.25;;
46000;SDS011;72226;48.272;11.180;2024-01-30T14:22:35;4.32;;;2.05;;
46000;SDS011;72226;48.272;11.180;2024-01-30T14:25:00;5.10;;;2.70;;